createdAt,value
2023-05-01T00:00:42.290Z,11.70
2023-05-01T00:04:24.313Z,11.60
2023-05-01T00:08:06.225Z,11.60
2023-05-01T00:11:48.235Z,11.40
2023-05-01T00:15:31.136Z,11.40
2023-05-01T00:19:16.549Z,11.30
2023-05-01T00:22:58.461Z,11.20
2023-05-01T00:26:40.352Z,11.00
2023-05-01T00:30:22.302Z,10.90
2023-05-01T00:34:05.213Z,10.80
2023-05-01T00:37:47.170Z,10.60
2023-05-01T00:41:29.093Z,10.50
2023-05-01T00:45:11.375Z,10.40
2023-05-01T00:48:53.768Z,10.20
2023-05-01T00:52:36.200Z,10.10
2023-05-01T00:56:18.444Z,10.00
2023-05-01T01:00:00.423Z,9.90
2023-05-01T01:03:42.315Z,9.80
2023-05-01T01:07:41.658Z,9.60
2023-05-01T01:11:59.189Z,9.60
2023-05-01T01:15:50.304Z,9.40
2023-05-01T01:19:54.152Z,9.40
2023-05-01T01:24:01.004Z,9.30
2023-05-01T01:27:58.828Z,9.30
2023-05-01T01:31:56.230Z,9.40
2023-05-01T01:35:41.619Z,9.40
2023-05-01T01:39:40.607Z,9.40
2023-05-01T01:43:24.364Z,9.40
2023-05-01T01:47:12.146Z,9.40
2023-05-01T01:50:57.438Z,9.50
2023-05-01T01:54:43.622Z,9.50
2023-05-01T01:58:26.977Z,9.50
2023-05-01T02:02:10.194Z,9.60
2023-05-01T02:05:55.164Z,9.70
2023-05-01T02:09:38.433Z,9.70
2023-05-01T02:13:21.091Z,9.80
2023-05-01T02:17:04.348Z,9.90
2023-05-01T02:20:46.739Z,9.90
2023-05-01T02:24:29.557Z,10.00
2023-05-01T02:28:19.476Z,10.00
2023-05-01T02:32:01.485Z,10.10
2023-05-01T02:35:44.622Z,10.10
2023-05-01T02:39:26.540Z,10.20
2023-05-01T02:43:12.478Z,10.20
2023-05-01T02:46:56.495Z,10.30
2023-05-01T02:50:40.900Z,10.30
2023-05-01T02:54:22.814Z,10.30
2023-05-01T02:58:04.732Z,10.40
2023-05-01T03:01:46.938Z,10.40
2023-05-01T03:05:28.865Z,10.40
2023-05-01T03:09:11.825Z,10.40
2023-05-01T03:12:53.720Z,10.50
2023-05-01T03:16:35.743Z,10.50
2023-05-01T03:20:17.759Z,10.50
2023-05-01T03:24:00.018Z,10.50
2023-05-01T03:27:41.978Z,10.50
2023-05-01T03:31:23.988Z,10.60
2023-05-01T03:35:06.416Z,10.60
2023-05-01T03:38:48.596Z,10.60
2023-05-01T03:42:30.595Z,10.50
2023-05-01T03:46:12.548Z,10.50
2023-05-01T03:49:55.465Z,10.50
2023-05-01T03:53:37.595Z,10.50
2023-05-01T03:57:23.389Z,10.50
2023-05-01T04:01:05.818Z,10.50
2023-05-01T04:04:47.700Z,10.40
2023-05-01T04:08:29.617Z,10.40
2023-05-01T04:12:11.538Z,10.30
2023-05-01T04:15:55.385Z,10.30
2023-05-01T04:19:38.026Z,10.30
2023-05-01T04:23:22.546Z,10.40
2023-05-01T04:27:06.083Z,10.40
2023-05-01T04:30:48.096Z,10.40
2023-05-01T04:34:29.993Z,10.40
2023-05-01T04:38:12.021Z,10.50
2023-05-01T04:41:53.896Z,10.50
2023-05-01T04:45:35.953Z,10.50
2023-05-01T04:49:17.961Z,10.50
2023-05-01T04:52:59.844Z,10.60
2023-05-01T04:56:41.728Z,10.60
2023-05-01T05:00:23.928Z,10.60
2023-05-01T05:04:06.231Z,10.70
2023-05-01T05:07:48.459Z,10.70
2023-05-01T05:11:30.379Z,10.70
2023-05-01T05:15:12.284Z,10.80
2023-05-01T05:18:57.556Z,10.80
2023-05-01T05:22:39.530Z,10.80
2023-05-01T05:26:21.915Z,10.90
2023-05-01T05:30:07.553Z,10.90
2023-05-01T05:33:50.065Z,11.00
2023-05-01T05:37:32.036Z,11.00
2023-05-01T05:41:13.982Z,11.00
2023-05-01T05:44:55.928Z,11.10
2023-05-01T05:48:37.861Z,11.10
2023-05-01T05:52:19.701Z,11.20
2023-05-01T05:56:01.604Z,11.30
2023-05-01T05:59:44.828Z,11.30
2023-05-01T06:03:27.523Z,11.40
2023-05-01T06:07:09.716Z,11.50
2023-05-01T06:10:51.705Z,11.50
2023-05-01T06:14:33.853Z,11.60
2023-05-01T06:18:16.232Z,11.70
2023-05-01T06:21:58.263Z,11.80
2023-05-01T06:25:40.640Z,11.90
2023-05-01T06:29:23.198Z,12.10
2023-05-01T06:33:05.208Z,12.10
2023-05-01T06:36:47.150Z,12.30
2023-05-01T06:40:29.313Z,12.30
2023-05-01T06:44:11.324Z,12.40
2023-05-01T06:47:54.135Z,12.50
2023-05-01T06:51:36.164Z,12.60
2023-05-01T06:55:18.226Z,12.80
2023-05-01T06:59:00.299Z,12.90
2023-05-01T07:02:42.503Z,13.10
2023-05-01T07:06:24.622Z,13.20
2023-05-01T07:10:07.000Z,13.30
2023-05-01T07:13:48.965Z,13.40
2023-05-01T07:17:30.973Z,13.50
2023-05-01T07:21:15.695Z,13.60
2023-05-01T07:24:57.649Z,13.60
2023-05-01T07:28:39.554Z,13.70
2023-05-01T07:32:21.665Z,13.80
2023-05-01T07:36:04.665Z,13.90
2023-05-01T07:39:46.604Z,14.10
2023-05-01T07:43:28.587Z,14.30
2023-05-01T07:47:11.283Z,15.10
2023-05-01T07:50:53.605Z,16.10
2023-05-01T07:54:35.830Z,16.70
2023-05-01T07:58:17.783Z,16.70
2023-05-01T08:01:59.817Z,16.50
2023-05-01T08:05:42.706Z,16.20
2023-05-01T08:09:24.605Z,16.00
2023-05-01T08:13:06.480Z,15.90
2023-05-01T08:16:54.305Z,15.70
2023-05-01T08:20:36.839Z,15.60
2023-05-01T08:24:18.958Z,15.60
2023-05-01T08:28:01.491Z,15.70
2023-05-01T08:31:43.945Z,16.10
2023-05-01T08:35:25.944Z,16.30
2023-05-01T08:39:08.163Z,16.50
2023-05-01T08:42:50.934Z,16.60
2023-05-01T08:46:48.643Z,16.50
2023-05-01T08:50:31.814Z,16.60
2023-05-01T08:54:15.475Z,16.60
2023-05-01T08:57:58.759Z,16.60
2023-05-01T09:01:41.836Z,16.60
2023-05-01T09:05:23.826Z,16.70
2023-05-01T09:09:06.264Z,16.80
2023-05-01T09:12:54.351Z,17.10
2023-05-01T09:16:36.347Z,17.60
2023-05-01T09:20:19.889Z,18.00
2023-05-01T09:24:02.812Z,18.10
2023-05-01T09:27:46.045Z,18.10
2023-05-01T09:31:29.877Z,18.20
2023-05-01T09:35:17.568Z,18.40
2023-05-01T09:39:00.505Z,18.70
2023-05-01T09:42:51.274Z,18.90
2023-05-01T09:46:42.915Z,18.90
2023-05-01T09:50:35.343Z,19.00
2023-05-01T09:54:20.914Z,19.10
2023-05-01T09:58:03.586Z,19.30
2023-05-01T10:01:47.188Z,19.50
2023-05-01T10:05:43.327Z,19.60
2023-05-01T10:09:29.768Z,19.60
2023-05-01T10:13:15.481Z,19.70
2023-05-01T10:17:30.978Z,19.60
2023-05-01T10:20:59.860Z,19.60
2023-05-01T10:24:43.826Z,19.90
2023-05-01T10:28:28.640Z,20.50
2023-05-01T10:32:11.356Z,20.90
2023-05-01T10:35:57.489Z,21.10
2023-05-01T10:39:39.625Z,21.10
2023-05-01T10:43:25.774Z,21.20
2023-05-01T10:47:30.696Z,21.10
2023-05-01T10:51:32.246Z,20.70
2023-05-01T10:55:43.575Z,20.30
2023-05-01T10:59:26.127Z,19.80
2023-05-01T11:03:23.364Z,19.40
2023-05-01T11:07:05.381Z,19.00
2023-05-01T11:10:47.425Z,18.90
2023-05-01T11:15:03.005Z,19.20
2023-05-01T11:18:47.770Z,19.80
2023-05-01T11:22:30.877Z,19.90
2023-05-01T11:26:13.990Z,19.80
2023-05-01T11:29:58.516Z,19.60
2023-05-01T11:33:41.250Z,19.30
2023-05-01T11:37:42.688Z,19.00
2023-05-01T11:41:26.137Z,18.80
2023-05-01T11:45:11.483Z,18.70
2023-05-01T11:49:02.724Z,18.60
2023-05-01T11:52:49.943Z,18.70
2023-05-01T11:56:32.951Z,19.00
2023-05-01T12:00:16.348Z,19.50
2023-05-01T12:03:58.539Z,20.10
2023-05-01T12:07:40.554Z,20.60
2023-05-01T12:11:24.178Z,20.60
2023-05-01T12:15:06.638Z,20.50
2023-05-01T12:18:48.647Z,20.30
2023-05-01T12:22:30.586Z,20.20
2023-05-01T12:26:26.046Z,20.30
2023-05-01T12:30:08.496Z,20.50
2023-05-01T12:34:01.837Z,20.70
2023-05-01T12:37:43.855Z,20.80
2023-05-01T12:41:46.214Z,20.80
2023-05-01T12:45:28.202Z,20.60
2023-05-01T12:49:10.085Z,20.40
2023-05-01T12:52:52.446Z,20.10
2023-05-01T12:56:34.387Z,19.90
2023-05-01T13:00:16.720Z,19.70
2023-05-01T13:03:58.802Z,19.60
2023-05-01T13:07:47.565Z,19.50
2023-05-01T13:11:29.471Z,19.60
2023-05-01T13:15:21.738Z,20.10
2023-05-01T13:19:06.499Z,20.70
2023-05-01T13:22:48.435Z,21.60
2023-05-01T13:26:33.020Z,22.70
2023-05-01T13:30:16.031Z,23.60
2023-05-01T13:33:59.750Z,24.10
2023-05-01T13:37:41.944Z,24.50
2023-05-01T13:41:29.213Z,24.50
2023-05-01T13:45:12.802Z,24.00
2023-05-01T13:48:54.876Z,23.40
2023-05-01T13:52:45.507Z,22.90
2023-05-01T13:56:27.399Z,23.20
2023-05-01T14:00:17.533Z,23.10
2023-05-01T14:04:03.699Z,22.70
2023-05-01T14:07:53.357Z,22.20
2023-05-01T14:11:41.291Z,21.60
2023-05-01T14:15:24.656Z,21.10
2023-05-01T14:19:07.082Z,21.00
2023-05-01T14:22:52.491Z,21.00
2023-05-01T14:26:36.585Z,21.00
2023-05-01T14:30:39.654Z,21.00
2023-05-01T14:34:22.061Z,21.80
2023-05-01T14:38:10.506Z,22.60
2023-05-01T14:41:52.422Z,22.60
2023-05-01T14:45:36.723Z,22.40
2023-05-01T14:49:24.619Z,22.70
2023-05-01T14:53:06.664Z,22.60
2023-05-01T14:56:48.970Z,22.90
2023-05-01T15:00:30.880Z,22.80
2023-05-01T15:04:13.244Z,22.80
2023-05-01T15:08:00.521Z,22.50
2023-05-01T15:11:42.427Z,22.30
2023-05-01T15:15:24.539Z,21.90
2023-05-01T15:19:06.413Z,21.60
2023-05-01T15:22:48.310Z,21.20
2023-05-01T15:26:30.216Z,21.00
2023-05-01T15:30:12.398Z,21.40
2023-05-01T15:33:54.290Z,22.00
2023-05-01T15:37:36.386Z,22.50
2023-05-01T15:41:19.173Z,22.90
2023-05-01T15:45:03.307Z,23.20
2023-05-01T15:48:46.358Z,23.10
2023-05-01T15:52:28.571Z,23.10
2023-05-01T15:56:10.922Z,22.90
2023-05-01T15:59:55.967Z,22.40
2023-05-01T16:03:44.647Z,22.10
2023-05-01T16:07:29.379Z,21.70
2023-05-01T16:11:12.618Z,21.50
2023-05-01T16:14:54.540Z,21.20
2023-05-01T16:18:39.581Z,21.10
2023-05-01T16:22:21.555Z,20.90
2023-05-01T16:26:03.589Z,20.70
2023-05-01T16:29:45.576Z,20.50
2023-05-01T16:33:27.585Z,20.50
2023-05-01T16:37:09.470Z,20.40
2023-05-01T16:40:51.347Z,20.40
2023-05-01T16:44:36.588Z,20.50
2023-05-01T16:48:23.242Z,20.50
2023-05-01T16:52:05.390Z,20.40
2023-05-01T16:55:47.690Z,20.30
2023-05-01T16:59:29.830Z,20.30
2023-05-01T17:03:13.941Z,20.20
2023-05-01T17:06:56.292Z,20.00
2023-05-01T17:10:38.554Z,19.90
2023-05-01T17:14:20.591Z,19.90
2023-05-01T17:18:02.569Z,19.90
2023-05-01T17:21:44.487Z,19.90
2023-05-01T17:25:26.573Z,20.00
2023-05-01T17:29:08.699Z,19.90
2023-05-01T17:32:50.915Z,19.80
2023-05-01T17:36:32.994Z,19.60
2023-05-01T17:40:14.933Z,19.40
2023-05-01T17:43:57.164Z,19.30
2023-05-01T17:47:41.798Z,19.10
2023-05-01T17:51:23.969Z,19.00
2023-05-01T17:55:06.553Z,18.90
2023-05-01T17:58:48.426Z,18.70
2023-05-01T18:02:30.965Z,18.60
2023-05-01T18:06:13.003Z,18.50
2023-05-01T18:09:55.388Z,18.40
2023-05-01T18:13:39.817Z,18.40
2023-05-01T18:17:22.730Z,18.20
2023-05-01T18:21:04.962Z,18.20
2023-05-01T18:24:47.068Z,18.00
2023-05-01T18:28:29.037Z,17.90
2023-05-01T18:32:13.546Z,17.80
2023-05-01T18:35:56.003Z,17.70
2023-05-01T18:39:38.864Z,17.70
2023-05-01T18:43:20.844Z,17.60
2023-05-01T18:47:02.721Z,17.50
2023-05-01T18:50:54.206Z,17.40
2023-05-01T18:54:43.401Z,17.30
2023-05-01T18:58:25.292Z,17.20
2023-05-01T19:02:07.275Z,17.00
2023-05-01T19:05:49.315Z,16.90
2023-05-01T19:09:31.367Z,16.80
2023-05-01T19:13:13.249Z,16.60
2023-05-01T19:16:55.188Z,16.50
2023-05-01T19:20:37.151Z,16.40
2023-05-01T19:24:19.032Z,16.30
2023-05-01T19:28:02.129Z,16.20
2023-05-01T19:31:44.104Z,16.00
2023-05-01T19:35:26.292Z,15.90
2023-05-01T19:39:08.240Z,15.80
2023-05-01T19:42:50.674Z,15.60
2023-05-01T19:46:32.615Z,15.50
2023-05-01T19:50:18.513Z,15.40
2023-05-01T19:54:01.264Z,15.30
2023-05-01T19:57:43.424Z,15.20
2023-05-01T20:01:25.359Z,15.10
2023-05-01T20:05:07.811Z,15.00
2023-05-01T20:08:49.693Z,15.00
2023-05-01T20:12:32.525Z,14.90
2023-05-01T20:16:17.270Z,14.80
2023-05-01T20:19:59.790Z,14.70
2023-05-01T20:23:43.006Z,14.70
2023-05-01T20:27:25.404Z,14.60
2023-05-01T20:31:07.367Z,14.50
2023-05-01T20:34:49.292Z,14.40
2023-05-01T20:38:31.745Z,14.30
2023-05-01T20:42:13.632Z,14.20
2023-05-01T20:45:55.651Z,14.20
2023-05-01T20:49:37.572Z,14.10
2023-05-01T20:53:19.764Z,14.00
2023-05-01T20:57:02.942Z,14.00
2023-05-01T21:00:44.853Z,14.00
2023-05-01T21:04:26.744Z,14.00
2023-05-01T21:08:08.636Z,13.90
2023-05-01T21:11:50.540Z,13.90
2023-05-01T21:15:34.240Z,13.90
2023-05-01T21:19:16.243Z,13.90
2023-05-01T21:22:59.208Z,13.90
2023-05-01T21:26:41.121Z,13.80
2023-05-01T21:30:34.378Z,13.70
2023-05-01T21:34:18.565Z,13.60
2023-05-01T21:38:00.862Z,13.50
2023-05-01T21:41:42.856Z,13.40
2023-05-01T21:45:25.066Z,13.20
2023-05-01T21:49:06.985Z,13.20
2023-05-01T21:52:50.610Z,13.00
2023-05-01T21:56:33.119Z,13.00
2023-05-01T22:00:16.014Z,12.90
2023-05-01T22:03:58.611Z,12.80
2023-05-01T22:07:42.214Z,12.70
2023-05-01T22:11:24.432Z,12.60
2023-05-01T22:15:11.160Z,12.50
2023-05-01T22:18:53.925Z,12.40
2023-05-01T22:22:37.316Z,12.30
2023-05-01T22:26:19.190Z,12.20
2023-05-01T22:30:01.830Z,12.10
2023-05-01T22:33:44.023Z,12.00
2023-05-01T22:37:26.012Z,11.90
2023-05-01T22:41:08.163Z,11.80
2023-05-01T22:44:50.051Z,11.70
2023-05-01T22:48:32.611Z,11.60
2023-05-01T22:52:14.535Z,11.60
2023-05-01T22:55:56.704Z,11.40
2023-05-01T22:59:40.465Z,11.30
2023-05-01T23:03:25.363Z,11.20
2023-05-01T23:07:07.374Z,11.20
2023-05-01T23:10:49.405Z,11.10
2023-05-01T23:14:31.324Z,11.00
2023-05-01T23:18:17.386Z,10.90
2023-05-01T23:22:18.022Z,10.80
2023-05-01T23:26:00.186Z,10.70
2023-05-01T23:29:47.156Z,10.70
2023-05-01T23:33:39.425Z,10.60
2023-05-01T23:37:22.316Z,10.50
2023-05-01T23:41:04.898Z,10.40
2023-05-01T23:44:46.997Z,10.40
2023-05-01T23:48:29.032Z,10.30
2023-05-01T23:52:10.970Z,10.20
2023-05-01T23:55:53.080Z,10.20
2023-05-01T23:59:35.511Z,10.10
